createdAt,value
2018-08-06T00:02:03.987Z,21.20
2018-08-06T00:04:34.732Z,21.10
2018-08-06T00:07:05.281Z,21.00
2018-08-06T00:09:35.715Z,21.00
2018-08-06T00:12:06.388Z,21.00
2018-08-06T00:14:37.571Z,21.00
2018-08-06T00:17:08.276Z,20.90
2018-08-06T00:19:38.993Z,20.90
2018-08-06T00:22:09.482Z,20.90
2018-08-06T00:24:39.868Z,20.80
2018-08-06T00:27:10.392Z,20.70
2018-08-06T00:29:40.860Z,20.70
2018-08-06T00:32:11.281Z,20.70
2018-08-06T00:34:41.823Z,20.60
2018-08-06T00:37:12.342Z,20.60
2018-08-06T00:39:42.769Z,20.60
2018-08-06T00:42:13.201Z,20.50
2018-08-06T00:44:43.585Z,20.50
2018-08-06T00:47:14.796Z,20.50
2018-08-06T00:49:46.183Z,20.40
2018-08-06T00:52:16.667Z,20.40
2018-08-06T00:54:47.149Z,20.30
2018-08-06T00:57:17.721Z,20.30
2018-08-06T00:59:48.271Z,20.20
2018-08-06T01:02:18.711Z,20.20
2018-08-06T01:04:49.217Z,20.10
2018-08-06T01:07:19.680Z,20.10
2018-08-06T01:09:50.260Z,20.00
2018-08-06T01:12:20.813Z,20.00
2018-08-06T01:14:51.277Z,20.00
2018-08-06T01:17:21.668Z,19.90
2018-08-06T01:19:52.143Z,19.90
2018-08-06T01:25:29.795Z,19.80
2018-08-06T01:31:17.535Z,19.70
2018-08-06T01:33:48.175Z,19.70
2018-08-06T01:36:18.921Z,19.70
2018-08-06T01:38:49.879Z,19.70
2018-08-06T01:41:22.342Z,19.60
2018-08-06T01:43:55.003Z,19.60
2018-08-06T01:46:27.535Z,19.60
2018-08-06T01:49:00.282Z,19.50
2018-08-06T01:51:31.186Z,19.50
2018-08-06T01:54:04.840Z,19.50
2018-08-06T01:56:35.656Z,19.50
2018-08-06T01:59:08.235Z,19.40
2018-08-06T02:01:38.998Z,19.40
2018-08-06T02:04:09.810Z,19.40
2018-08-06T02:06:40.456Z,19.30
2018-08-06T02:09:13.084Z,19.20
2018-08-06T02:11:45.609Z,19.20
2018-08-06T02:14:18.068Z,19.20
2018-08-06T02:16:50.602Z,19.20
2018-08-06T02:19:23.096Z,19.20
2018-08-06T02:25:27.137Z,19.10
2018-08-06T02:27:59.612Z,19.10
2018-08-06T02:30:31.932Z,19.10
2018-08-06T02:33:04.254Z,19.10
2018-08-06T02:35:36.678Z,19.00
2018-08-06T02:38:09.080Z,19.10
2018-08-06T02:40:41.502Z,19.00
2018-08-06T02:43:13.903Z,19.10
2018-08-06T02:45:46.271Z,19.10
2018-08-06T02:48:18.649Z,19.10
2018-08-06T02:54:12.115Z,19.10
2018-08-06T02:56:45.204Z,19.20
2018-08-06T02:59:17.805Z,19.10
2018-08-06T03:01:50.501Z,19.10
2018-08-06T03:04:23.218Z,19.10
2018-08-06T03:06:55.838Z,19.00
2018-08-06T03:12:49.139Z,19.10
2018-08-06T03:15:23.144Z,19.10
2018-08-06T03:17:55.451Z,19.00
2018-08-06T03:20:28.594Z,19.00
2018-08-06T03:23:00.877Z,18.90
2018-08-06T03:25:34.318Z,18.90
2018-08-06T03:28:06.843Z,18.90
2018-08-06T03:30:39.179Z,18.90
2018-08-06T03:33:11.440Z,18.80
2018-08-06T03:35:43.770Z,18.80
2018-08-06T03:41:37.932Z,18.90
2018-08-06T03:44:11.591Z,18.80
2018-08-06T03:46:46.118Z,18.80
2018-08-06T03:49:21.015Z,18.80
2018-08-06T03:51:53.728Z,18.80
2018-08-06T03:54:26.838Z,18.80
2018-08-06T03:56:59.294Z,18.80
2018-08-06T03:59:31.698Z,18.80
2018-08-06T04:02:04.338Z,18.80
2018-08-06T04:04:42.065Z,18.70
2018-08-06T04:07:23.411Z,18.70
2018-08-06T04:09:55.962Z,18.70
2018-08-06T04:12:28.478Z,18.70
2018-08-06T04:17:31.920Z,18.70
2018-08-06T04:20:04.305Z,18.70
2018-08-06T04:22:36.673Z,18.70
2018-08-06T04:25:10.145Z,18.70
2018-08-06T04:27:42.588Z,18.70
2018-08-06T04:32:50.152Z,18.80
2018-08-06T04:35:32.997Z,18.80
2018-08-06T04:38:05.394Z,18.90
2018-08-06T04:40:37.770Z,18.90
2018-08-06T04:43:10.160Z,18.80
2018-08-06T04:45:42.538Z,18.80
2018-08-06T04:48:14.825Z,18.80
2018-08-06T04:50:47.279Z,18.80
2018-08-06T04:53:19.647Z,18.80
2018-08-06T04:55:52.108Z,18.70
2018-08-06T04:58:24.399Z,18.70
2018-08-06T05:00:56.831Z,18.70
2018-08-06T05:03:29.114Z,18.70
2018-08-06T05:06:02.063Z,18.70
2018-08-06T05:08:34.417Z,18.70
2018-08-06T05:11:06.914Z,18.70
2018-08-06T05:13:39.307Z,18.70
2018-08-06T05:16:11.716Z,18.70
2018-08-06T05:18:44.170Z,18.60
2018-08-06T05:21:16.593Z,18.60
2018-08-06T05:24:01.042Z,18.50
2018-08-06T05:26:34.118Z,18.50
2018-08-06T05:29:07.379Z,18.40
2018-08-06T05:31:39.731Z,18.40
2018-08-06T05:34:12.254Z,18.40
2018-08-06T05:36:44.655Z,18.40
2018-08-06T05:39:17.115Z,18.40
2018-08-06T05:41:49.629Z,18.40
2018-08-06T05:44:22.052Z,18.30
2018-08-06T05:46:54.951Z,18.40
2018-08-06T05:49:28.037Z,18.30
2018-08-06T05:52:00.987Z,18.30
2018-08-06T05:57:54.447Z,18.30
2018-08-06T06:03:48.408Z,18.10
2018-08-06T06:06:21.881Z,18.00
2018-08-06T06:08:54.928Z,18.00
2018-08-06T06:11:28.032Z,18.00
2018-08-06T06:14:01.092Z,18.00
2018-08-06T06:19:57.586Z,18.00
2018-08-06T06:22:30.102Z,18.00
2018-08-06T06:25:46.744Z,18.00
2018-08-06T06:28:19.305Z,18.00
2018-08-06T06:30:51.561Z,18.00
2018-08-06T06:33:24.027Z,18.00
2018-08-06T06:35:56.393Z,18.00
2018-08-06T06:38:28.664Z,17.90
2018-08-06T06:41:01.107Z,17.90
2018-08-06T06:43:33.364Z,17.90
2018-08-06T06:46:05.788Z,18.00
2018-08-06T06:48:38.080Z,17.90
2018-08-06T06:51:10.552Z,17.90
2018-08-06T06:53:43.164Z,17.90
2018-08-06T06:56:15.500Z,17.90
2018-08-06T06:58:47.771Z,17.90
2018-08-06T07:01:20.287Z,17.90
2018-08-06T07:03:52.676Z,17.90
2018-08-06T07:06:24.979Z,17.90
2018-08-06T07:08:58.280Z,17.90
2018-08-06T07:11:44.344Z,17.90
2018-08-06T07:14:16.934Z,17.90
2018-08-06T07:20:10.652Z,17.80
2018-08-06T07:22:43.533Z,17.70
2018-08-06T07:25:15.836Z,17.70
2018-08-06T07:27:48.158Z,17.70
2018-08-06T07:30:20.376Z,17.70
2018-08-06T07:32:52.886Z,17.60
2018-08-06T07:35:25.783Z,17.60
2018-08-06T07:37:58.208Z,17.60
2018-08-06T07:40:30.394Z,17.60
2018-08-06T07:43:02.686Z,17.50
2018-08-06T07:45:34.994Z,17.50
2018-08-06T07:48:07.786Z,17.50
2018-08-06T07:50:40.114Z,17.50
2018-08-06T07:53:12.338Z,17.50
2018-08-06T07:55:44.640Z,17.50
2018-08-06T07:58:16.926Z,17.50
2018-08-06T08:00:49.219Z,17.40
2018-08-06T08:03:22.100Z,17.40
2018-08-06T08:05:55.520Z,17.50
2018-08-06T08:08:27.884Z,17.50
2018-08-06T08:11:00.260Z,17.40
2018-08-06T08:13:32.732Z,17.50
2018-08-06T08:16:05.013Z,17.50
2018-08-06T08:18:37.605Z,17.50
2018-08-06T08:21:09.999Z,17.50
2018-08-06T08:23:42.455Z,17.50
2018-08-06T08:26:14.834Z,17.50
2018-08-06T08:28:47.026Z,17.50
2018-08-06T08:31:19.277Z,17.50
2018-08-06T08:33:52.479Z,17.50
2018-08-06T08:36:24.722Z,17.60
2018-08-06T08:38:56.977Z,17.60
2018-08-06T08:41:30.070Z,17.50
2018-08-06T08:44:02.427Z,17.50
2018-08-06T08:46:34.677Z,17.50
2018-08-06T08:49:07.145Z,17.50
2018-08-06T08:51:39.433Z,17.60
2018-08-06T08:54:11.730Z,17.50
2018-08-06T08:56:43.933Z,17.50
2018-08-06T08:59:16.325Z,17.50
2018-08-06T09:01:48.663Z,17.50
2018-08-06T09:04:20.918Z,17.50
2018-08-06T09:06:53.230Z,17.60
2018-08-06T09:09:25.463Z,17.60
2018-08-06T09:11:57.843Z,17.60
2018-08-06T09:14:30.173Z,17.60
2018-08-06T09:17:02.485Z,17.60
2018-08-06T09:19:34.822Z,17.60
2018-08-06T09:22:07.146Z,17.50
2018-08-06T09:28:00.628Z,17.60
2018-08-06T09:30:32.907Z,17.50
2018-08-06T09:33:05.872Z,17.50
2018-08-06T09:35:38.235Z,17.50
2018-08-06T09:38:11.342Z,17.50
2018-08-06T09:40:43.656Z,17.50
2018-08-06T09:43:16.272Z,17.40
2018-08-06T09:45:49.300Z,17.40
2018-08-06T09:48:21.750Z,17.40
2018-08-06T09:50:53.929Z,17.30
2018-08-06T09:53:27.336Z,17.30
2018-08-06T09:55:59.968Z,17.30
2018-08-06T09:58:32.454Z,17.30
2018-08-06T10:01:09.280Z,17.30
2018-08-06T10:03:41.506Z,17.30
2018-08-06T10:06:13.977Z,17.30
2018-08-06T10:08:46.199Z,17.30
2018-08-06T10:11:19.104Z,17.30
2018-08-06T10:13:51.467Z,17.40
2018-08-06T10:16:23.828Z,17.40
2018-08-06T10:18:56.304Z,17.40
2018-08-06T10:21:28.721Z,17.40
2018-08-06T10:24:01.033Z,17.40
2018-08-06T10:26:34.129Z,17.40
2018-08-06T10:29:07.348Z,17.40
2018-08-06T10:31:39.561Z,17.40
2018-08-06T10:34:12.044Z,17.40
2018-08-06T10:36:45.142Z,17.40
2018-08-06T10:39:17.649Z,17.40
2018-08-06T10:41:49.902Z,17.40
2018-08-06T10:44:22.222Z,17.30
2018-08-06T10:46:54.572Z,17.30
2018-08-06T10:49:26.854Z,17.40
2018-08-06T10:51:59.699Z,17.40
2018-08-06T10:54:32.029Z,17.40
2018-08-06T10:57:04.989Z,17.40
2018-08-06T10:59:37.456Z,17.40
2018-08-06T11:05:30.420Z,17.40
2018-08-06T11:08:02.676Z,17.40
2018-08-06T11:10:34.843Z,17.40
2018-08-06T11:13:07.162Z,17.40
2018-08-06T11:15:39.623Z,17.40
2018-08-06T11:18:11.882Z,17.50
2018-08-06T11:20:44.260Z,17.40
2018-08-06T11:25:47.430Z,17.40
2018-08-06T11:28:20.132Z,17.40
2018-08-06T11:30:52.746Z,17.30
2018-08-06T11:33:25.101Z,17.30
2018-08-06T11:35:57.692Z,17.30
2018-08-06T11:38:30.173Z,17.30
2018-08-06T11:41:02.563Z,17.30
2018-08-06T11:43:35.694Z,17.30
2018-08-06T11:46:07.961Z,17.20
2018-08-06T11:48:40.279Z,17.30
2018-08-06T11:54:49.353Z,17.30
2018-08-06T11:57:24.270Z,17.30
2018-08-06T11:59:57.291Z,17.30
2018-08-06T12:02:35.165Z,17.30
2018-08-06T12:05:11.222Z,17.30
2018-08-06T12:07:47.797Z,17.30
2018-08-06T12:10:23.175Z,17.30
2018-08-06T12:13:00.537Z,17.30
2018-08-06T12:15:33.274Z,17.30
2018-08-06T12:18:06.168Z,17.40
2018-08-06T12:20:39.318Z,17.40
2018-08-06T12:23:12.343Z,17.50
2018-08-06T12:25:45.280Z,17.50
2018-08-06T12:28:18.173Z,17.50
2018-08-06T12:30:51.601Z,17.60
2018-08-06T12:33:24.557Z,17.60
2018-08-06T12:35:57.504Z,17.60
2018-08-06T12:38:38.876Z,17.70
2018-08-06T12:41:12.039Z,17.70
2018-08-06T12:43:45.539Z,17.80
2018-08-06T12:46:18.292Z,17.80
2018-08-06T12:48:54.050Z,17.80
2018-08-06T12:51:27.298Z,17.80
2018-08-06T12:54:00.447Z,17.80
2018-08-06T12:56:33.564Z,17.80
2018-08-06T12:59:07.127Z,17.90
2018-08-06T13:01:40.164Z,18.00
2018-08-06T13:04:13.265Z,18.10
2018-08-06T13:06:47.282Z,18.20
2018-08-06T13:09:20.703Z,18.30
2018-08-06T13:11:54.375Z,18.30
2018-08-06T13:14:29.192Z,18.30
2018-08-06T13:17:02.077Z,18.20
2018-08-06T13:19:34.996Z,18.30
2018-08-06T13:22:07.874Z,18.40
2018-08-06T13:24:41.510Z,18.40
2018-08-06T13:27:14.295Z,18.40
2018-08-06T13:29:47.138Z,18.50
2018-08-06T13:32:20.292Z,18.60
2018-08-06T13:38:13.943Z,18.80
2018-08-06T13:40:47.135Z,19.20
2018-08-06T13:46:40.931Z,19.30
2018-08-06T13:49:13.485Z,19.50
2018-08-06T13:51:45.974Z,19.40
2018-08-06T13:57:39.799Z,19.50
2018-08-06T14:00:15.696Z,19.80
2018-08-06T14:02:49.056Z,19.90
2018-08-06T14:05:22.103Z,20.10
2018-08-06T14:07:54.848Z,20.20
2018-08-06T14:10:25.728Z,20.40
2018-08-06T14:12:56.622Z,20.30
2018-08-06T14:15:27.478Z,20.20
2018-08-06T14:17:58.322Z,20.20
2018-08-06T14:20:29.082Z,20.40
2018-08-06T14:23:03.623Z,21.20
2018-08-06T14:25:36.856Z,22.40
2018-08-06T14:28:10.357Z,23.80
2018-08-06T14:30:41.208Z,23.90
2018-08-06T14:33:12.089Z,23.60
2018-08-06T14:35:43.218Z,23.50
2018-08-06T14:38:14.180Z,22.60
2018-08-06T14:40:45.149Z,21.90
2018-08-06T14:43:16.735Z,21.60
2018-08-06T14:45:47.919Z,21.40
2018-08-06T14:48:19.835Z,21.30
2018-08-06T14:50:50.669Z,21.60
2018-08-06T14:53:22.245Z,21.80
2018-08-06T14:55:54.589Z,21.80
2018-08-06T14:58:27.055Z,21.70
2018-08-06T15:00:58.026Z,21.30
2018-08-06T15:03:31.621Z,21.20
2018-08-06T15:06:02.890Z,21.00
2018-08-06T15:08:33.890Z,20.90
2018-08-06T15:11:09.305Z,20.80
2018-08-06T15:13:41.054Z,20.80
2018-08-06T15:16:12.596Z,20.80
2018-08-06T15:18:44.535Z,20.60
2018-08-06T15:21:15.348Z,21.20
2018-08-06T15:24:10.568Z,21.90
2018-08-06T15:26:42.147Z,22.80
2018-08-06T15:29:13.920Z,22.40
2018-08-06T15:34:14.131Z,22.20
2018-08-06T15:36:44.996Z,22.00
2018-08-06T15:39:17.100Z,22.40
2018-08-06T15:41:52.241Z,22.30
2018-08-06T15:44:23.619Z,22.00
2018-08-06T15:46:54.921Z,21.60
2018-08-06T15:49:26.012Z,21.10
2018-08-06T15:51:58.109Z,21.00
2018-08-06T15:54:29.696Z,21.30
2018-08-06T15:57:01.311Z,21.70
2018-08-06T15:59:33.067Z,22.40
2018-08-06T16:28:06.496Z,23.00
2018-08-06T16:30:37.495Z,23.30
2018-08-06T16:33:08.795Z,24.10
2018-08-06T16:35:41.173Z,24.80
2018-08-06T16:38:11.875Z,24.00
2018-08-06T16:40:42.837Z,23.10
2018-08-06T16:43:16.241Z,22.80
2018-08-06T16:45:49.806Z,22.60
2018-08-06T16:48:21.132Z,22.20
2018-08-06T16:50:53.494Z,22.10
2018-08-06T16:53:33.648Z,22.50
2018-08-06T16:58:54.788Z,23.50
2018-08-06T17:01:25.659Z,23.40
2018-08-06T17:03:58.073Z,22.80
2018-08-06T17:06:28.894Z,22.50
2018-08-06T17:09:02.208Z,22.30
2018-08-06T17:11:33.159Z,22.90
2018-08-06T17:14:04.384Z,24.10
2018-08-06T17:16:35.593Z,25.10
2018-08-06T17:19:06.686Z,25.70
2018-08-06T17:21:38.523Z,26.10
2018-08-06T17:24:12.316Z,26.40
2018-08-06T17:26:43.545Z,24.80
2018-08-06T17:29:14.631Z,24.90
2018-08-06T17:31:45.414Z,25.70
2018-08-06T17:34:16.096Z,26.10
2018-08-06T17:36:46.733Z,26.20
2018-08-06T17:39:17.351Z,26.70
2018-08-06T17:41:48.075Z,26.60
2018-08-06T17:44:18.871Z,25.90
2018-08-06T17:46:49.502Z,25.90
2018-08-06T17:49:28.285Z,26.10
2018-08-06T17:52:01.370Z,25.20
2018-08-06T17:54:34.804Z,25.50
2018-08-06T17:57:06.286Z,25.40
2018-08-06T17:59:37.870Z,25.80
2018-08-06T18:02:08.562Z,26.00
2018-08-06T18:04:39.324Z,25.90
2018-08-06T18:07:10.198Z,24.90
2018-08-06T18:09:41.750Z,24.40
2018-08-06T18:12:17.965Z,24.00
2018-08-06T18:14:50.905Z,24.00
2018-08-06T18:17:24.130Z,24.80
2018-08-06T18:19:57.502Z,25.10
2018-08-06T18:22:29.899Z,26.50
2018-08-06T18:28:11.261Z,26.30
2018-08-06T18:30:45.180Z,26.40
2018-08-06T18:33:34.299Z,26.20
2018-08-06T18:36:06.407Z,26.50
2018-08-06T18:38:43.299Z,26.10
2018-08-06T18:41:19.474Z,25.70
2018-08-06T18:43:54.204Z,24.90
2018-08-06T18:46:30.684Z,24.30
2018-08-06T18:49:06.059Z,24.40
2018-08-06T18:51:40.149Z,24.90
2018-08-06T18:54:13.966Z,26.20
2018-08-06T18:56:45.771Z,26.90
2018-08-06T18:59:16.541Z,26.50
2018-08-06T19:01:50.314Z,26.00
2018-08-06T19:04:22.555Z,25.10
2018-08-06T19:06:54.825Z,24.10
2018-08-06T19:09:25.467Z,23.50
2018-08-06T19:12:00.256Z,23.20
2018-08-06T19:14:30.880Z,22.50
2018-08-06T19:17:01.610Z,22.40
2018-08-06T19:19:32.244Z,23.10
2018-08-06T19:22:02.883Z,23.40
2018-08-06T19:27:41.080Z,24.70
2018-08-06T19:30:12.217Z,25.00
2018-08-06T19:32:42.951Z,25.40
2018-08-06T19:35:13.756Z,25.30
2018-08-06T19:37:48.359Z,25.40
2018-08-06T19:40:19.942Z,25.70
2018-08-06T19:42:55.052Z,26.60
2018-08-06T19:45:25.830Z,26.60
2018-08-06T19:47:56.551Z,25.70
2018-08-06T19:50:31.568Z,26.00
2018-08-06T19:53:02.325Z,26.00
2018-08-06T19:55:37.787Z,26.00
2018-08-06T19:58:08.677Z,26.10
2018-08-06T20:00:39.896Z,26.10
2018-08-06T20:03:12.020Z,25.70
2018-08-06T20:05:42.834Z,25.50
2018-08-06T20:08:16.280Z,25.00
2018-08-06T20:10:47.009Z,25.50
2018-08-06T20:13:19.301Z,25.80
2018-08-06T20:15:50.084Z,26.50
2018-08-06T20:18:21.581Z,26.50
2018-08-06T20:20:53.607Z,26.90
2018-08-06T20:23:24.701Z,27.00
2018-08-06T20:28:26.370Z,25.80
2018-08-06T20:30:57.386Z,25.80
2018-08-06T20:33:28.024Z,25.10
2018-08-06T20:36:00.105Z,24.80
2018-08-06T20:38:33.501Z,24.60
2018-08-06T20:41:06.268Z,24.70
2018-08-06T20:43:48.531Z,25.10
2018-08-06T20:46:20.060Z,24.70
2018-08-06T20:48:50.624Z,24.50
2018-08-06T20:51:21.314Z,24.30
2018-08-06T20:53:53.698Z,24.40
2018-08-06T20:56:28.858Z,24.50
2018-08-06T20:59:00.313Z,24.50
2018-08-06T21:01:34.579Z,24.90
2018-08-06T21:04:06.406Z,25.60
2018-08-06T21:06:37.801Z,25.70
2018-08-06T21:09:12.401Z,25.90
2018-08-06T21:11:43.730Z,25.50
2018-08-06T21:14:14.345Z,25.80
2018-08-06T21:16:48.204Z,25.50
2018-08-06T21:19:23.548Z,25.10
2018-08-06T21:21:56.765Z,25.40
2018-08-06T21:24:31.007Z,25.90
2018-08-06T21:27:06.397Z,26.00
2018-08-06T21:29:37.172Z,25.90
2018-08-06T21:32:09.180Z,25.30
2018-08-06T21:34:41.304Z,25.30
2018-08-06T21:37:12.866Z,25.60
2018-08-06T21:39:47.928Z,25.70
2018-08-06T21:45:40.236Z,25.30
2018-08-06T21:48:10.646Z,25.90
2018-08-06T21:50:41.992Z,25.40
2018-08-06T21:53:12.498Z,24.80
2018-08-06T21:55:43.085Z,24.50
2018-08-06T21:58:42.768Z,24.30
2018-08-06T22:01:14.598Z,24.40
2018-08-06T22:03:47.576Z,24.60
2018-08-06T22:06:18.301Z,24.80
2018-08-06T22:08:49.293Z,24.90
2018-08-06T22:11:20.653Z,25.00
2018-08-06T22:13:51.456Z,24.80
2018-08-06T22:16:33.986Z,24.50
2018-08-06T22:19:04.728Z,24.60
2018-08-06T22:21:35.323Z,25.10
2018-08-06T22:24:08.505Z,24.90
2018-08-06T22:26:39.949Z,24.40
2018-08-06T22:29:10.799Z,24.20
2018-08-06T22:31:41.460Z,23.90
2018-08-06T22:34:13.114Z,23.60
2018-08-06T22:36:43.515Z,23.30
2018-08-06T22:39:14.078Z,23.10
2018-08-06T22:41:45.188Z,22.60
2018-08-06T22:44:15.578Z,22.70
2018-08-06T22:46:46.042Z,22.50
2018-08-06T22:49:16.759Z,22.70
2018-08-06T22:51:47.276Z,22.50
2018-08-06T22:54:18.258Z,22.40
2018-08-06T22:56:48.749Z,22.20
2018-08-06T22:59:20.290Z,22.00
2018-08-06T23:01:51.532Z,22.00
2018-08-06T23:04:22.099Z,21.90
2018-08-06T23:09:21.982Z,21.60
2018-08-06T23:15:00.184Z,21.70
2018-08-06T23:17:31.282Z,21.40
2018-08-06T23:20:03.445Z,21.40
2018-08-06T23:22:34.201Z,21.50
2018-08-06T23:25:08.086Z,21.40
2018-08-06T23:27:39.946Z,21.20
2018-08-06T23:30:12.062Z,21.30
2018-08-06T23:32:43.182Z,21.30
2018-08-06T23:35:14.823Z,21.20
2018-08-06T23:37:46.545Z,21.20
2018-08-06T23:40:17.893Z,21.10
2018-08-06T23:42:48.693Z,20.90
2018-08-06T23:45:19.555Z,20.90
2018-08-06T23:47:50.966Z,20.80
2018-08-06T23:50:22.437Z,20.60
2018-08-06T23:52:53.157Z,20.70
2018-08-06T23:55:24.302Z,20.70
2018-08-06T23:57:55.033Z,20.60
